createdAt,value
2019-02-20T00:02:55.739Z,25.97
2019-02-20T00:07:57.880Z,28.13
2019-02-20T00:13:01.503Z,32.23
2019-02-20T00:18:04.622Z,29.17
2019-02-20T00:23:08.154Z,30.90
2019-02-20T00:28:10.231Z,37.07
2019-02-20T00:33:13.729Z,24.73
2019-02-20T00:38:15.744Z,28.73
2019-02-20T00:43:18.822Z,33.57
2019-02-20T00:48:41.180Z,35.47
2019-02-20T00:53:48.374Z,35.50
2019-02-20T00:58:50.371Z,34.43
2019-02-20T01:03:52.570Z,26.60
2019-02-20T01:08:54.739Z,27.13
2019-02-20T01:13:56.730Z,44.90
2019-02-20T01:19:02.720Z,26.87
2019-02-20T01:24:04.714Z,28.53
2019-02-20T01:29:06.764Z,30.93
2019-02-20T01:34:08.765Z,31.23
2019-02-20T01:39:11.969Z,36.80
2019-02-20T01:44:14.003Z,33.60
2019-02-20T01:49:16.424Z,30.50
2019-02-20T01:54:18.447Z,34.70
2019-02-20T01:59:20.439Z,38.50
2019-02-20T02:04:22.655Z,35.03
2019-02-20T02:09:24.885Z,35.60
2019-02-20T02:14:28.937Z,40.27
2019-02-20T02:19:31.201Z,41.87
2019-02-20T02:24:33.204Z,32.10
2019-02-20T02:29:35.449Z,38.90
2019-02-20T02:34:37.456Z,34.27
2019-02-20T02:39:40.324Z,47.57
2019-02-20T02:44:42.634Z,37.60
2019-02-20T02:49:44.646Z,43.10
2019-02-20T02:54:49.745Z,32.67
2019-02-20T02:59:51.926Z,38.80
2019-02-20T03:04:55.375Z,34.80
2019-02-20T03:09:57.411Z,34.30
2019-02-20T03:14:59.423Z,38.00
2019-02-20T03:20:01.728Z,42.07
2019-02-20T03:25:03.821Z,43.40
2019-02-20T03:30:06.169Z,43.70
2019-02-20T03:35:09.302Z,38.97
2019-02-20T03:40:13.637Z,36.93
2019-02-20T03:45:20.601Z,36.80
2019-02-20T03:50:22.857Z,38.97
2019-02-20T03:55:24.876Z,42.17
2019-02-20T04:00:27.076Z,40.20
2019-02-20T04:05:31.870Z,42.50
2019-02-20T04:10:33.870Z,47.10
2019-02-20T04:15:35.974Z,37.80
2019-02-20T04:20:38.058Z,50.07
2019-02-20T04:25:40.119Z,42.93
2019-02-20T04:30:42.371Z,38.23
2019-02-20T04:35:44.383Z,43.17
2019-02-20T04:40:46.605Z,37.80
2019-02-20T04:45:48.634Z,38.30
2019-02-20T04:50:54.530Z,39.80
2019-02-20T04:55:56.552Z,35.13
2019-02-20T05:00:58.815Z,40.80
2019-02-20T05:06:00.827Z,33.03
2019-02-20T05:11:02.841Z,33.17
2019-02-20T05:16:04.861Z,38.17
2019-02-20T05:21:07.161Z,35.40
2019-02-20T05:26:09.216Z,31.70
2019-02-20T05:31:11.348Z,35.43
2019-02-20T05:36:13.373Z,37.70
2019-02-20T05:41:15.420Z,28.47
2019-02-20T05:46:17.414Z,36.47
2019-02-20T05:51:20.693Z,33.07
2019-02-20T05:56:22.706Z,33.60
2019-02-20T06:01:24.804Z,39.97
2019-02-20T06:06:26.835Z,28.47
2019-02-20T06:11:28.832Z,29.37
2019-02-20T06:16:31.403Z,38.30
2019-02-20T06:21:34.764Z,29.10
2019-02-20T06:26:36.735Z,31.53
2019-02-20T06:31:38.807Z,30.47
2019-02-20T06:36:40.806Z,27.30
2019-02-20T06:41:42.813Z,36.70
2019-02-20T06:46:44.831Z,32.53
2019-02-20T06:51:49.141Z,42.73
2019-02-20T06:56:51.170Z,27.20
2019-02-20T07:01:54.533Z,24.07
2019-02-20T07:07:21.205Z,35.03
2019-02-20T07:12:52.423Z,32.73
2019-02-20T07:18:23.249Z,41.67
2019-02-20T07:23:54.416Z,26.63
2019-02-20T07:29:46.443Z,30.63
2019-02-20T07:34:48.529Z,26.77
2019-02-20T07:39:50.546Z,35.70
2019-02-20T07:44:55.377Z,35.97
2019-02-20T07:49:57.424Z,38.53
2019-02-20T07:54:59.421Z,31.37
2019-02-20T08:00:01.470Z,24.23
2019-02-20T08:05:03.832Z,43.80
2019-02-20T08:10:08.174Z,26.77
2019-02-20T08:15:10.957Z,32.63
2019-02-20T08:20:13.057Z,31.70
2019-02-20T08:25:22.903Z,33.80
2019-02-20T08:30:21.550Z,29.10
2019-02-20T08:35:23.547Z,24.67
2019-02-20T08:40:26.603Z,40.83
2019-02-20T08:45:28.624Z,29.63
2019-02-20T08:50:30.786Z,29.33
2019-02-20T08:55:32.785Z,36.60
2019-02-20T09:00:35.033Z,35.97
2019-02-20T09:05:37.101Z,37.10
2019-02-20T09:10:39.174Z,32.93
2019-02-20T09:15:43.709Z,32.80
2019-02-20T09:20:47.056Z,40.17
2019-02-20T09:25:49.064Z,38.60
2019-02-20T09:30:51.273Z,29.80
2019-02-20T09:35:54.301Z,38.00
2019-02-20T09:40:56.403Z,35.83
2019-02-20T09:46:01.789Z,40.40
2019-02-20T09:51:07.102Z,33.17
2019-02-20T09:56:09.154Z,34.17
2019-02-20T10:01:12.661Z,34.77
2019-02-20T10:06:15.760Z,39.10
2019-02-20T10:11:18.962Z,30.07
2019-02-20T10:16:21.048Z,31.63
2019-02-20T10:21:25.845Z,29.43
2019-02-20T10:26:28.075Z,36.70
2019-02-20T10:31:30.346Z,29.33
2019-02-20T10:36:32.406Z,33.67
2019-02-20T10:41:38.478Z,30.90
2019-02-20T10:46:40.506Z,25.83
2019-02-20T10:51:42.729Z,30.10
2019-02-20T10:56:44.760Z,30.23
2019-02-20T11:01:46.847Z,27.47
2019-02-20T11:06:49.954Z,31.30
2019-02-20T11:11:52.269Z,23.53
2019-02-20T11:16:54.290Z,25.03
2019-02-20T11:21:57.846Z,22.27
2019-02-20T11:26:59.912Z,24.57
2019-02-20T11:32:02.271Z,25.23
2019-02-20T11:37:04.282Z,20.67
2019-02-20T11:42:06.564Z,25.80
2019-02-20T11:47:13.412Z,32.03
2019-02-20T11:52:15.421Z,25.43
2019-02-20T11:57:17.447Z,21.83
2019-02-20T12:02:21.960Z,23.67
2019-02-20T12:07:24.104Z,23.20
2019-02-20T12:12:26.106Z,25.77
2019-02-20T12:17:28.139Z,21.70
2019-02-20T12:22:30.555Z,21.13
2019-02-20T12:27:34.043Z,28.70
2019-02-20T12:32:36.066Z,18.63
2019-02-20T12:37:40.650Z,27.57
2019-02-20T12:42:42.686Z,25.00
2019-02-20T12:47:47.044Z,21.13
2019-02-20T12:52:49.150Z,22.10
2019-02-20T12:57:51.175Z,26.83
2019-02-20T13:02:53.466Z,22.03
2019-02-20T13:07:55.983Z,17.93
2019-02-20T13:12:58.340Z,17.10
2019-02-20T13:18:00.461Z,21.90
2019-02-20T13:23:02.881Z,27.03
2019-02-20T13:28:04.919Z,19.23
2019-02-20T13:33:07.366Z,22.90
2019-02-20T13:38:09.375Z,19.57
2019-02-20T13:43:11.639Z,17.40
2019-02-20T13:48:13.711Z,21.93
2019-02-20T13:53:15.924Z,18.00
2019-02-20T13:58:17.947Z,25.40
2019-02-20T14:03:23.460Z,24.27
2019-02-20T14:08:25.511Z,18.73
2019-02-20T14:13:27.608Z,19.93
2019-02-20T14:18:29.653Z,21.33
2019-02-20T14:23:35.926Z,18.13
2019-02-20T14:28:38.629Z,18.33
2019-02-20T14:33:40.788Z,20.13
2019-02-20T14:38:42.863Z,15.70
2019-02-20T14:43:45.022Z,21.37
2019-02-20T14:48:47.401Z,22.03
2019-02-20T14:53:49.782Z,21.93
2019-02-20T14:58:54.089Z,17.67
2019-02-20T15:03:56.558Z,17.07
2019-02-20T15:09:01.110Z,16.33
2019-02-20T15:14:03.358Z,19.70
2019-02-20T15:19:05.486Z,20.50
2019-02-20T15:24:07.515Z,16.73
2019-02-20T15:29:09.527Z,20.80
2019-02-20T15:34:11.888Z,17.57
2019-02-20T15:39:13.951Z,16.40
2019-02-20T15:44:16.035Z,18.60
2019-02-20T15:49:21.061Z,21.57
2019-02-20T15:54:23.108Z,18.27
2019-02-20T15:59:25.114Z,18.20
2019-02-20T16:04:27.126Z,18.07
2019-02-20T16:09:29.455Z,20.77
2019-02-20T16:14:31.470Z,15.17
2019-02-20T16:19:36.026Z,18.73
2019-02-20T16:24:38.039Z,21.30
2019-02-20T16:29:42.291Z,28.80
2019-02-20T16:34:47.104Z,25.17
2019-02-20T16:39:49.148Z,20.80
2019-02-20T16:44:51.197Z,25.90
2019-02-20T16:49:53.353Z,18.67
2019-02-20T16:54:57.057Z,16.23
2019-02-20T16:59:59.104Z,18.67
2019-02-20T17:05:01.115Z,26.43
2019-02-20T17:10:03.972Z,20.53
2019-02-20T17:15:07.633Z,23.50
2019-02-20T17:20:11.887Z,20.70
2019-02-20T17:25:16.969Z,23.53
2019-02-20T17:30:24.109Z,20.10
2019-02-20T17:35:26.176Z,21.93
2019-02-20T17:40:28.357Z,23.55
2019-02-20T17:45:30.412Z,21.27
2019-02-20T17:50:35.441Z,24.43
2019-02-20T17:55:37.571Z,24.80
2019-02-20T18:00:41.321Z,26.20
2019-02-20T18:05:45.875Z,24.63
2019-02-20T18:10:47.941Z,20.60
2019-02-20T18:15:51.762Z,20.37
2019-02-20T18:20:59.285Z,26.00
2019-02-20T18:26:01.328Z,20.10
2019-02-20T18:31:03.556Z,29.20
2019-02-20T18:36:05.707Z,28.80
2019-02-20T18:41:08.140Z,33.67
2019-02-20T18:46:10.181Z,25.73
2019-02-20T18:51:12.382Z,24.60
2019-02-20T18:56:22.284Z,26.50
2019-02-20T19:01:24.646Z,22.97
2019-02-20T19:06:26.777Z,31.00
2019-02-20T19:11:43.638Z,28.07
2019-02-20T19:17:33.578Z,28.13
2019-02-20T19:23:18.439Z,30.40
2019-02-20T19:28:44.556Z,33.07
2019-02-20T19:34:13.749Z,32.40
2019-02-20T19:39:27.094Z,31.67
2019-02-20T19:44:59.760Z,28.53
2019-02-20T19:50:34.971Z,46.30
2019-02-20T19:56:07.626Z,39.30
2019-02-20T20:01:39.895Z,31.37
2019-02-20T20:07:19.602Z,33.33
2019-02-20T20:13:20.614Z,29.07
2019-02-20T20:18:56.020Z,32.03
2019-02-20T20:24:52.867Z,30.27
2019-02-20T20:30:32.695Z,34.43
2019-02-20T20:35:47.777Z,25.30
2019-02-20T20:41:45.008Z,24.40
2019-02-20T20:47:43.832Z,26.73
2019-02-20T20:53:00.901Z,28.77
2019-02-20T20:58:27.231Z,27.53
2019-02-20T21:03:33.016Z,29.33
2019-02-20T21:09:11.926Z,26.37
2019-02-20T21:14:49.229Z,23.67
2019-02-20T21:20:13.767Z,25.67
2019-02-20T21:26:03.856Z,28.10
2019-02-20T21:31:43.771Z,26.57
2019-02-20T21:37:23.519Z,19.60
2019-02-20T21:42:50.271Z,25.93
2019-02-20T21:48:13.623Z,27.57
2019-02-20T21:54:08.235Z,29.43
2019-02-20T22:00:00.403Z,32.73
2019-02-20T22:05:29.383Z,27.13
2019-02-20T22:10:58.714Z,29.83
2019-02-20T22:16:10.638Z,30.30
2019-02-20T22:22:04.859Z,33.33
2019-02-20T22:27:48.806Z,29.83
2019-02-20T22:33:11.866Z,28.67
2019-02-20T22:38:43.679Z,26.80
2019-02-20T22:44:27.500Z,32.23
2019-02-20T22:50:11.335Z,29.87
2019-02-20T22:55:52.620Z,32.60
2019-02-20T23:01:40.922Z,33.33
2019-02-20T23:07:04.752Z,39.00
2019-02-20T23:12:35.268Z,35.27
2019-02-20T23:17:40.255Z,39.37
2019-02-20T23:22:42.272Z,40.47
2019-02-20T23:27:44.443Z,39.47
2019-02-20T23:32:46.498Z,40.00
2019-02-20T23:37:49.767Z,35.20
2019-02-20T23:42:52.022Z,41.80
2019-02-20T23:47:56.968Z,42.43
2019-02-20T23:52:59.088Z,36.73
2019-02-20T23:58:01.211Z,39.03
